Time;durP1;ratioP1;P1;durP2;ratioP2;P2;SDS_P1;SDS_P2;PMS_P1;PMS_P2;Temp;Humidity;BMP_temperature;BMP_pressure;BME280_temperature;BME280_humidity;BME280_pressure;Samples;Min_cycle;Max_cycle;Signal;HPM_P1;HPM_P2
2023/01/16 00:00:59;;;;;;;3.63;1.80;;;2.00;93.60;;;;;;4972489;28;87829;-74
2023/01/16 00:03:25;;;;;;;3.45;1.45;;;2.10;93.80;;;;;;4988944;28;87187;-73
2023/01/16 00:05:50;;;;;;;7.00;1.83;;;2.10;93.70;;;;;;4979558;28;87053;-75
2023/01/16 00:08:16;;;;;;;3.63;1.50;;;2.10;93.70;;;;;;4975782;28;88127;-73
2023/01/16 00:10:43;;;;;;;4.15;1.77;;;2.00;93.90;;;;;;4976874;28;87859;-74
2023/01/16 00:13:13;;;;;;;4.13;1.52;;;1.90;94.00;;;;;;4975205;28;87466;-71
2023/01/16 00:15:47;;;;;;;4.43;1.48;;;1.90;94.20;;;;;;4973321;28;87459;-71
2023/01/16 00:18:13;;;;;;;4.43;1.38;;;1.90;94.20;;;;;;4964505;28;90278;-72
2023/01/16 00:20:39;;;;;;;4.65;1.48;;;1.90;94.10;;;;;;4980500;28;88772;-74
2023/01/16 00:23:05;;;;;;;4.22;1.55;;;2.00;94.10;;;;;;4976168;28;87838;-73
2023/01/16 00:25:30;;;;;;;6.43;1.48;;;2.00;93.90;;;;;;4979312;28;87096;-72
2023/01/16 00:27:56;;;;;;;4.22;1.35;;;2.00;93.70;;;;;;4980358;28;88367;-73
2023/01/16 00:30:22;;;;;;;3.22;0.90;;;2.10;93.40;;;;;;4971934;28;88085;-73
2023/01/16 00:32:48;;;;;;;5.32;1.25;;;2.10;93.30;;;;;;4974872;28;88641;-72
2023/01/16 00:35:14;;;;;;;3.20;1.02;;;2.10;93.20;;;;;;4968958;28;86325;-73
2023/01/16 00:37:39;;;;;;;4.43;0.98;;;2.10;93.20;;;;;;4980733;28;87649;-72
2023/01/16 00:40:06;;;;;;;2.95;1.00;;;2.10;93.20;;;;;;4979999;28;87088;-72
2023/01/16 00:42:31;;;;;;;3.35;0.98;;;2.10;93.10;;;;;;4971953;28;88281;-72
2023/01/16 00:44:57;;;;;;;2.60;0.93;;;2.20;93.10;;;;;;4978913;28;87629;-74
2023/01/16 00:47:22;;;;;;;3.30;0.90;;;2.20;92.80;;;;;;4973890;28;87682;-73
2023/01/16 00:49:48;;;;;;;3.15;0.88;;;2.20;92.80;;;;;;4981336;28;87372;-73
2023/01/16 00:52:16;;;;;;;3.90;0.98;;;2.20;92.70;;;;;;4980442;28;87521;-73
2023/01/16 00:54:42;;;;;;;5.15;0.95;;;2.30;92.60;;;;;;4981110;28;87838;-72
2023/01/16 00:57:07;;;;;;;2.97;1.23;;;2.30;92.60;;;;;;4978243;28;89200;-72
2023/01/16 00:59:33;;;;;;;4.00;0.90;;;2.20;92.60;;;;;;4983634;28;87947;-72
2023/01/16 01:01:59;;;;;;;3.80;1.20;;;2.20;92.60;;;;;;4978218;28;87504;-71
2023/01/16 01:04:24;;;;;;;3.45;1.40;;;2.20;92.60;;;;;;4986481;28;87464;-71
2023/01/16 01:06:50;;;;;;;3.70;1.10;;;2.10;92.80;;;;;;4974969;28;88505;-74
2023/01/16 01:09:16;;;;;;;3.63;1.20;;;2.10;92.90;;;;;;4975983;28;88683;-71
2023/01/16 01:11:42;;;;;;;4.57;1.77;;;2.10;92.90;;;;;;4970177;28;87634;-71
2023/01/16 01:14:07;;;;;;;3.40;1.30;;;2.00;93.10;;;;;;4976862;28;87115;-72
2023/01/16 01:16:33;;;;;;;3.42;1.17;;;2.00;93.20;;;;;;4979801;28;87550;-73
2023/01/16 01:18:59;;;;;;;3.55;1.23;;;1.90;93.40;;;;;;4988673;28;89418;-74
2023/01/16 01:21:24;;;;;;;4.03;1.20;;;1.90;93.50;;;;;;4980143;28;87350;-73
2023/01/16 01:23:50;;;;;;;4.13;1.90;;;1.80;93.60;;;;;;4971364;28;86586;-73
2023/01/16 01:26:17;;;;;;;4.05;1.52;;;1.80;93.80;;;;;;4981373;28;88116;-73
2023/01/16 01:28:43;;;;;;;3.03;0.90;;;1.80;93.80;;;;;;4972077;28;87314;-72
2023/01/16 01:31:11;;;;;;;3.17;1.02;;;1.80;93.90;;;;;;4979869;28;88691;-73
2023/01/16 01:33:37;;;;;;;3.13;0.90;;;1.80;93.90;;;;;;4975969;28;87223;-73
2023/01/16 01:36:04;;;;;;;6.20;1.95;;;1.80;93.90;;;;;;4978452;28;88231;-72
2023/01/16 01:38:30;;;;;;;3.03;1.40;;;1.80;93.90;;;;;;4979618;28;87272;-72
2023/01/16 01:40:56;;;;;;;2.88;1.00;;;1.80;93.70;;;;;;4974359;28;87026;-73
2023/01/16 01:43:21;;;;;;;3.05;1.10;;;1.90;93.80;;;;;;4969425;28;88714;-74
2023/01/16 01:45:54;;;;;;;5.10;1.80;;;1.80;93.80;;;;;;4975185;28;87643;-74
2023/01/16 01:48:37;;;;;;;6.40;1.30;;;1.70;93.90;;;;;;4978184;28;88975;-75
2023/01/16 01:51:10;;;;;;;3.88;1.20;;;1.70;94.00;;;;;;4971045;28;88313;-71
2023/01/16 01:53:43;;;;;;;2.40;0.70;;;1.60;94.10;;;;;;4982406;28;87370;-71
2023/01/16 01:56:36;;;;;;;2.40;1.00;;;1.50;94.30;;;;;;4977966;28;89558;-72
2023/01/16 01:59:07;;;;;;;2.95;0.68;;;1.50;94.40;;;;;;4977227;28;89241;-72
2023/01/16 02:01:33;;;;;;;2.90;1.10;;;1.50;94.50;;;;;;4988675;28;87295;-72
2023/01/16 02:04:03;;;;;;;4.63;1.25;;;1.50;94.60;;;;;;4979899;28;87570;-70
2023/01/16 02:06:37;;;;;;;4.28;1.23;;;1.50;94.50;;;;;;4976906;28;88291;-71
2023/01/16 02:09:03;;;;;;;2.60;0.98;;;1.40;94.60;;;;;;4969867;28;88380;-72
2023/01/16 02:11:51;;;;;;;3.28;0.77;;;1.40;94.60;;;;;;4978265;28;87271;-72
2023/01/16 02:14:18;;;;;;;3.08;0.52;;;1.30;94.80;;;;;;4978438;28;86290;-72
2023/01/16 02:19:38;;;;;;;4.60;1.00;;;1.20;95.00;;;;;;4973450;28;87955;-72
2023/01/16 02:22:44;;;;;;;2.35;0.82;;;1.20;95.00;;;;;;4976752;28;88232;-70
2023/01/16 02:25:44;;;;;;;2.90;0.80;;;1.20;95.10;;;;;;4979070;28;87409;-75
2023/01/16 02:28:18;;;;;;;1.90;0.60;;;1.20;95.20;;;;;;4979078;28;87795;-73
2023/01/16 02:31:03;;;;;;;2.85;0.80;;;1.10;95.10;;;;;;4976653;28;88329;-74
2023/01/16 02:33:37;;;;;;;3.35;0.85;;;1.10;95.10;;;;;;4977410;28;88929;-72
2023/01/16 02:36:34;;;;;;;3.35;0.93;;;1.10;95.30;;;;;;4979337;28;87269;-72
2023/01/16 02:39:37;;;;;;;2.30;0.77;;;1.10;95.20;;;;;;4974983;28;88172;-73
2023/01/16 02:42:26;;;;;;;;;;;1.10;95.30;;;;;;4988668;28;87692;-71
2023/01/16 02:45:14;;;;;;;2.13;0.47;;;1.10;95.40;;;;;;4980089;28;87517;-72
2023/01/16 02:47:49;;;;;;;2.67;0.68;;;1.10;95.40;;;;;;4980679;28;87121;-72
2023/01/16 02:50:18;;;;;;;3.30;0.55;;;1.10;95.30;;;;;;4980066;28;89050;-71
2023/01/16 02:52:57;;;;;;;2.60;0.60;;;1.10;95.20;;;;;;4979381;28;89261;-75
2023/01/16 02:55:36;;;;;;;1.70;0.40;;;1.10;95.20;;;;;;4979486;28;87937;-74
2023/01/16 02:58:06;;;;;;;1.67;0.57;;;1.10;95.10;;;;;;4981167;28;87205;-73
2023/01/16 03:00:33;;;;;;;2.33;0.55;;;1.10;95.10;;;;;;4977744;28;87484;-73
2023/01/16 03:02:59;;;;;;;2.67;0.40;;;1.10;95.10;;;;;;4978826;28;87476;-74
2023/01/16 03:05:31;;;;;;;1.88;0.50;;;1.00;95.20;;;;;;4981952;28;87056;-74
2023/01/16 03:08:14;;;;;;;1.85;0.40;;;1.00;95.20;;;;;;4976057;28;87674;-73
2023/01/16 03:11:09;;;;;;;2.33;0.30;;;1.00;95.30;;;;;;4977581;28;88312;-72
2023/01/16 03:13:35;;;;;;;1.88;0.50;;;1.00;95.20;;;;;;4977341;28;87748;-73
2023/01/16 03:16:12;;;;;;;1.65;0.35;;;1.00;95.40;;;;;;4979108;28;88166;-72
2023/01/16 03:18:43;;;;;;;4.43;0.40;;;1.00;95.40;;;;;;4982901;28;87261;-73
2023/01/16 03:21:38;;;;;;;1.45;0.22;;;0.90;95.40;;;;;;4975308;28;87704;-71
2023/01/16 03:24:13;;;;;;;2.15;0.30;;;1.00;95.50;;;;;;4969093;28;88405;-71
2023/01/16 03:26:43;;;;;;;1.40;0.30;;;1.10;95.20;;;;;;4981477;28;87050;-72
2023/01/16 03:29:21;;;;;;;1.52;0.35;;;1.10;94.80;;;;;;4980430;28;87313;-72
2023/01/16 03:31:57;;;;;;;1.92;0.22;;;1.20;94.60;;;;;;4980309;28;88152;-73
2023/01/16 03:34:51;;;;;;;2.33;0.10;;;1.20;94.30;;;;;;4982744;28;87827;-73
2023/01/16 03:37:24;;;;;;;1.27;0.28;;;1.30;94.20;;;;;;4985087;28;86924;-73
2023/01/16 03:39:59;;;;;;;1.50;0.20;;;1.30;94.00;;;;;;4985966;28;87291;-74
2023/01/16 03:42:34;;;;;;;1.52;0.15;;;1.30;93.80;;;;;;4974397;28;89057;-73
2023/01/16 03:45:10;;;;;;;1.40;0.15;;;1.30;93.80;;;;;;4971563;28;88723;-73
2023/01/16 03:47:41;;;;;;;1.42;0.20;;;1.30;93.90;;;;;;4981933;28;87782;-73
2023/01/16 03:50:10;;;;;;;1.55;0.10;;;1.30;94.00;;;;;;4982310;28;87357;-73
2023/01/16 03:52:43;;;;;;;1.67;0.20;;;1.30;93.80;;;;;;4974342;28;87195;-74
2023/01/16 03:55:19;;;;;;;1.27;0.20;;;1.20;93.70;;;;;;4975508;28;88242;-73
2023/01/16 03:57:52;;;;;;;2.22;0.20;;;1.30;93.40;;;;;;4976199;28;88148;-72
2023/01/16 04:00:19;;;;;;;1.50;0.40;;;1.30;93.30;;;;;;4991237;28;86363;-71
2023/01/16 04:03:19;;;;;;;1.10;0.30;;;1.30;93.40;;;;;;4967791;28;87484;-71
2023/01/16 04:06:11;;;;;;;1.30;0.20;;;1.30;93.50;;;;;;4984239;28;87696;-73
2023/01/16 04:08:40;;;;;;;1.48;0.20;;;1.30;93.40;;;;;;4975913;28;87883;-74
2023/01/16 04:11:07;;;;;;;1.70;0.35;;;1.30;93.30;;;;;;4975579;28;87102;-74
2023/01/16 04:13:36;;;;;;;1.30;0.20;;;1.20;93.50;;;;;;4967432;28;88527;-72
2023/01/16 04:16:06;;;;;;;1.83;0.30;;;1.10;93.80;;;;;;4978233;28;87882;-73
2023/01/16 04:18:34;;;;;;;1.65;0.20;;;1.10;94.10;;;;;;4981322;28;87535;-73
2023/01/16 04:21:02;;;;;;;3.90;0.85;;;1.00;94.30;;;;;;4981535;28;87273;-72
2023/01/16 04:23:28;;;;;;;1.75;0.22;;;1.00;94.60;;;;;;4979432;28;88401;-73
2023/01/16 04:25:54;;;;;;;2.90;0.25;;;1.00;94.30;;;;;;4978114;28;86658;-73
2023/01/16 04:28:19;;;;;;;1.40;0.17;;;1.00;94.20;;;;;;4979491;28;87345;-72
2023/01/16 04:30:45;;;;;;;3.13;0.43;;;1.10;94.10;;;;;;4979454;28;87512;-72
2023/01/16 04:33:11;;;;;;;1.35;0.20;;;1.10;93.80;;;;;;4967475;28;89248;-72
2023/01/16 04:35:36;;;;;;;1.08;0.17;;;1.20;93.50;;;;;;4970130;28;87169;-73
2023/01/16 04:38:02;;;;;;;1.40;0.20;;;1.30;93.30;;;;;;4983897;28;87385;-74
2023/01/16 04:40:28;;;;;;;1.55;0.17;;;1.30;92.90;;;;;;4969208;28;87440;-72
2023/01/16 04:42:54;;;;;;;1.35;0.10;;;1.40;92.70;;;;;;4970443;28;88042;-71
2023/01/16 04:45:21;;;;;;;1.33;0.20;;;1.40;92.30;;;;;;4976209;28;87273;-71
2023/01/16 04:47:47;;;;;;;0.47;0.00;;;1.50;92.20;;;;;;4968476;28;87543;-71
2023/01/16 04:50:13;;;;;;;0.75;0.10;;;1.50;91.90;;;;;;4970557;28;86635;-71
2023/01/16 04:52:40;;;;;;;0.80;0.00;;;1.60;91.50;;;;;;4967643;28;88919;-71
2023/01/16 04:55:07;;;;;;;1.02;0.25;;;1.60;91.50;;;;;;4972118;28;87568;-71
2023/01/16 04:57:32;;;;;;;3.22;0.13;;;1.60;91.20;;;;;;4963272;28;88539;-71
2023/01/16 04:59:58;;;;;;;0.88;0.10;;;1.60;90.80;;;;;;4973020;28;87584;-71
2023/01/16 05:02:24;;;;;;;2.25;0.30;;;1.70;90.60;;;;;;4963420;28;87395;-71
2023/01/16 05:04:49;;;;;;;0.73;0.10;;;1.80;90.50;;;;;;4972264;28;87293;-72
2023/01/16 05:07:15;;;;;;;1.67;0.10;;;1.80;90.50;;;;;;4974078;28;87023;-69
2023/01/16 05:09:41;;;;;;;2.40;0.20;;;1.80;90.60;;;;;;4975628;28;87236;-69
2023/01/16 05:12:07;;;;;;;1.45;0.20;;;1.70;90.80;;;;;;4967978;28;90074;-71
2023/01/16 05:14:32;;;;;;;1.08;0.10;;;1.70;90.80;;;;;;4968175;28;88128;-69
2023/01/16 05:16:58;;;;;;;1.23;0.10;;;1.60;91.00;;;;;;4978761;28;87099;-69
2023/01/16 05:19:23;;;;;;;2.63;0.20;;;1.60;90.90;;;;;;4967372;28;87424;-70
2023/01/16 05:21:49;;;;;;;1.00;0.10;;;1.60;91.10;;;;;;4977327;28;88743;-69
2023/01/16 05:24:15;;;;;;;1.50;0.20;;;1.50;91.10;;;;;;4976151;28;88960;-71
2023/01/16 05:26:41;;;;;;;1.10;0.20;;;1.50;91.30;;;;;;4974662;28;87399;-69
2023/01/16 05:29:06;;;;;;;1.95;0.10;;;1.40;91.30;;;;;;4973481;28;87684;-70
2023/01/16 05:31:32;;;;;;;1.55;0.10;;;1.40;91.00;;;;;;4976024;28;88076;-73
2023/01/16 05:33:58;;;;;;;0.88;0.10;;;1.40;91.00;;;;;;4985627;28;88277;-73
2023/01/16 05:36:23;;;;;;;1.00;0.10;;;1.50;90.50;;;;;;4978399;28;87042;-70
2023/01/16 05:38:50;;;;;;;0.85;0.10;;;1.50;90.30;;;;;;4985475;28;86470;-70
2023/01/16 05:41:16;;;;;;;1.08;0.10;;;1.50;90.20;;;;;;4978184;28;88772;-70
2023/01/16 05:43:42;;;;;;;2.30;0.20;;;1.60;90.20;;;;;;4978544;28;88301;-70
2023/01/16 05:46:08;;;;;;;1.20;0.20;;;1.50;90.10;;;;;;4976200;28;88324;-71
2023/01/16 05:48:35;;;;;;;2.53;0.30;;;1.50;90.20;;;;;;4985397;28;87227;-71
2023/01/16 05:51:02;;;;;;;2.63;0.57;;;1.40;90.50;;;;;;4978593;28;88675;-72
2023/01/16 05:53:30;;;;;;;1.15;0.32;;;1.30;91.00;;;;;;4974974;28;88317;-71
2023/01/16 05:55:56;;;;;;;2.40;0.50;;;1.20;91.20;;;;;;4986160;28;88040;-70
2023/01/16 05:58:22;;;;;;;2.47;0.30;;;1.20;91.30;;;;;;4977383;28;87096;-71
2023/01/16 06:00:48;;;;;;;1.50;0.10;;;1.10;91.40;;;;;;4977243;28;88256;-71
2023/01/16 06:03:17;;;;;;;2.30;0.20;;;1.10;91.10;;;;;;4976595;28;87815;-71
2023/01/16 06:05:43;;;;;;;1.35;0.20;;;1.00;91.10;;;;;;4971288;28;87550;-71
2023/01/16 06:08:08;;;;;;;0.85;0.20;;;1.10;90.70;;;;;;4980620;28;87665;-71
2023/01/16 06:10:35;;;;;;;1.58;0.10;;;1.10;90.80;;;;;;4980110;28;89046;-71
2023/01/16 06:13:01;;;;;;;1.13;0.10;;;1.00;90.40;;;;;;4979867;28;88180;-71
2023/01/16 06:15:27;;;;;;;0.50;0.00;;;1.00;90.10;;;;;;4983801;28;86951;-71
2023/01/16 06:17:53;;;;;;;1.25;0.10;;;1.10;89.40;;;;;;4978509;28;87086;-70
2023/01/16 06:20:19;;;;;;;1.08;0.10;;;1.20;89.60;;;;;;4981370;28;88964;-71
2023/01/16 06:22:45;;;;;;;0.90;0.10;;;1.20;89.20;;;;;;4977592;28;88604;-71
2023/01/16 06:25:11;;;;;;;0.65;0.10;;;1.20;89.00;;;;;;4981682;28;87412;-71
2023/01/16 06:27:37;;;;;;;1.02;0.10;;;1.20;88.60;;;;;;4983243;28;86332;-71
2023/01/16 06:30:04;;;;;;;0.98;0.03;;;1.20;88.30;;;;;;4978271;28;88339;-70
2023/01/16 06:32:29;;;;;;;1.98;0.10;;;1.20;88.20;;;;;;4972898;28;90122;-73
2023/01/16 06:34:55;;;;;;;0.40;0.00;;;1.30;88.30;;;;;;4981487;28;90292;-72
2023/01/16 06:37:21;;;;;;;1.10;0.10;;;1.20;88.00;;;;;;4980182;28;87035;-72
2023/01/16 06:39:46;;;;;;;0.55;0.10;;;1.30;87.10;;;;;;4984145;28;87354;-73
2023/01/16 06:42:12;;;;;;;2.10;0.00;;;1.40;85.90;;;;;;4981872;28;87833;-72
2023/01/16 06:44:38;;;;;;;1.23;0.05;;;1.40;85.00;;;;;;4985645;28;87185;-72
2023/01/16 06:47:04;;;;;;;1.42;0.10;;;1.40;85.40;;;;;;4973200;28;87529;-72
2023/01/16 06:49:29;;;;;;;0.50;0.00;;;1.40;85.50;;;;;;4972946;28;88699;-72
2023/01/16 06:51:55;;;;;;;1.15;0.08;;;1.40;85.30;;;;;;4980525;28;87194;-72
2023/01/16 06:54:21;;;;;;;0.68;0.10;;;1.40;85.60;;;;;;4969211;28;89705;-72
2023/01/16 06:56:46;;;;;;;0.82;0.10;;;1.40;86.20;;;;;;4977864;28;87694;-72
2023/01/16 06:59:12;;;;;;;2.30;0.10;;;1.40;86.20;;;;;;4990675;28;88036;-72
2023/01/16 07:01:38;;;;;;;0.60;0.10;;;1.50;86.40;;;;;;4982198;28;88233;-72
2023/01/16 07:04:06;;;;;;;0.85;0.10;;;1.50;86.20;;;;;;4964134;28;87206;-73
2023/01/16 07:06:32;;;;;;;1.38;0.10;;;1.60;86.00;;;;;;4967985;28;89180;-73
2023/01/16 07:08:58;;;;;;;5.65;0.20;;;1.60;86.60;;;;;;4981028;28;88171;-73
2023/01/16 07:11:24;;;;;;;3.58;0.68;;;1.50;86.70;;;;;;4978335;28;87385;-73
2023/01/16 07:22:33;;;;;;;2.75;0.57;;;1.50;86.90;;;;;;4990365;28;87580;-73
2023/01/16 07:24:47;;;;;;;3.20;0.60;;;1.50;86.70;;;;;;4974788;28;88437;-72
2023/01/16 07:27:13;;;;;;;4.25;0.50;;;1.50;87.10;;;;;;4981642;28;87082;-72
2023/01/16 07:29:39;;;;;;;2.17;0.20;;;1.60;86.20;;;;;;4969891;28;87866;-72
2023/01/16 07:32:05;;;;;;;1.90;0.35;;;1.60;85.30;;;;;;4971670;28;87706;-73
2023/01/16 07:34:31;;;;;;;1.30;0.20;;;1.70;85.30;;;;;;4979396;28;87383;-72
2023/01/16 07:36:56;;;;;;;0.82;0.10;;;1.80;84.70;;;;;;4990527;28;87049;-72
2023/01/16 07:39:22;;;;;;;1.05;0.10;;;2.20;83.50;;;;;;4977181;28;88934;-72
2023/01/16 07:41:50;;;;;;;1.98;0.10;;;3.60;79.00;;;;;;4983105;28;87234;-73
2023/01/16 07:44:15;;;;;;;0.47;0.00;;;5.20;71.90;;;;;;4987402;28;87164;-72
2023/01/16 07:46:41;;;;;;;2.15;0.10;;;6.70;67.40;;;;;;4980477;28;87351;-74
2023/01/16 07:49:07;;;;;;;1.02;0.10;;;7.80;63.40;;;;;;4983760;28;88548;-74
2023/01/16 07:51:32;;;;;;;1.25;0.10;;;8.30;61.00;;;;;;4984958;28;88169;-71
2023/01/16 07:53:58;;;;;;;1.13;0.20;;;8.80;59.40;;;;;;4983208;28;88556;-71
2023/01/16 07:56:24;;;;;;;2.55;0.30;;;9.40;57.30;;;;;;4985715;28;87014;-72
2023/01/16 07:58:52;;;;;;;1.02;0.20;;;10.00;55.70;;;;;;5000827;28;87382;-72
2023/01/16 08:01:18;;;;;;;0.80;0.30;;;9.60;55.00;;;;;;4972292;28;87862;-73
2023/01/16 08:03:44;;;;;;;2.00;0.20;;;9.20;55.30;;;;;;4981321;28;86934;-73
2023/01/16 08:06:09;;;;;;;2.08;0.17;;;8.80;56.80;;;;;;4981508;28;87070;-72
2023/01/16 08:08:35;;;;;;;0.75;0.20;;;7.30;58.30;;;;;;4978912;28;87451;-73
2023/01/16 08:11:35;;;;;;;2.65;0.10;;;6.10;61.70;;;;;;4982141;28;87810;-72
2023/01/16 08:13:49;;;;;;;0.63;0.15;;;5.20;64.20;;;;;;4992633;28;88334;-72
2023/01/16 08:16:15;;;;;;;0.68;0.10;;;4.70;65.20;;;;;;4984504;28;87432;-72
2023/01/16 08:18:40;;;;;;;0.88;0.10;;;4.50;67.00;;;;;;4992454;28;87510;-72
2023/01/16 08:21:06;;;;;;;4.50;0.25;;;4.30;67.40;;;;;;4983029;28;87297;-71
2023/01/16 08:23:32;;;;;;;1.30;0.20;;;4.50;69.00;;;;;;4987908;28;86911;-72
2023/01/16 08:26:00;;;;;;;1.67;0.20;;;4.50;68.30;;;;;;4991130;28;86989;-72
2023/01/16 08:28:26;;;;;;;1.52;0.20;;;4.40;69.20;;;;;;4981482;28;88161;-75
2023/01/16 08:30:52;;;;;;;3.60;0.50;;;4.50;68.90;;;;;;4980424;28;87229;-73
2023/01/16 08:33:17;;;;;;;3.47;0.88;;;4.40;69.50;;;;;;4980945;28;87344;-74
2023/01/16 08:35:43;;;;;;;4.93;0.90;;;4.30;70.00;;;;;;4981679;28;87099;-71
2023/01/16 08:38:09;;;;;;;3.83;1.08;;;4.40;70.20;;;;;;4982549;28;89692;-72
2023/01/16 08:40:34;;;;;;;2.00;0.50;;;4.80;68.40;;;;;;4981450;28;88299;-73
2023/01/16 08:51:24;;;;;;;1.60;0.20;;;11.20;50.90;;;;;;4979818;28;88645;-74
2023/01/16 08:53:55;;;;;;;0.82;0.17;;;11.20;48.40;;;;;;4975491;28;87823;-73
2023/01/16 08:56:22;;;;;;;3.30;0.30;;;9.90;49.40;;;;;;4994432;28;86672;-73
2023/01/16 08:58:48;;;;;;;1.88;0.30;;;8.50;52.10;;;;;;4987275;28;87358;-73
2023/01/16 09:01:14;;;;;;;2.00;0.17;;;7.50;54.70;;;;;;4979810;28;87119;-74
2023/01/16 09:03:40;;;;;;;1.20;0.20;;;7.10;55.90;;;;;;4972565;28;88376;-73
2023/01/16 09:06:06;;;;;;;3.45;0.30;;;7.30;56.40;;;;;;4979592;28;87775;-74
2023/01/16 09:08:31;;;;;;;4.65;0.30;;;7.20;56.50;;;;;;4982652;28;89391;-73
2023/01/16 09:13:50;;;;;;;1.40;0.30;;;7.20;57.70;;;;;;4982728;28;87669;-72
2023/01/16 09:16:22;;;;;;;1.48;0.30;;;7.10;58.00;;;;;;4980866;28;87509;-72
2023/01/16 09:18:48;;;;;;;0.70;0.10;;;7.10;57.60;;;;;;4983944;28;87346;-72
2023/01/16 09:21:14;;;;;;;1.23;0.10;;;7.20;56.30;;;;;;4977281;28;87937;-72
2023/01/16 09:23:40;;;;;;;3.22;0.20;;;7.30;57.00;;;;;;4978241;28;87057;-73
2023/01/16 09:26:06;;;;;;;1.52;0.10;;;7.20;55.40;;;;;;4979583;28;87907;-73
2023/01/16 09:28:32;;;;;;;2.38;0.20;;;7.30;58.30;;;;;;4985906;28;88508;-72
2023/01/16 09:30:57;;;;;;;1.17;0.10;;;7.50;58.90;;;;;;4980837;28;88231;-72
2023/01/16 09:33:23;;;;;;;1.90;0.10;;;7.20;60.90;;;;;;4980335;28;87074;-72
2023/01/16 09:35:49;;;;;;;1.65;0.20;;;7.10;62.10;;;;;;4980653;28;86901;-72
2023/01/16 09:38:15;;;;;;;1.08;0.25;;;7.10;63.00;;;;;;4974120;28;87392;-72
2023/01/16 09:40:49;;;;;;;2.50;0.20;;;7.00;63.70;;;;;;4985392;28;87315;-72
2023/01/16 09:43:35;;;;;;;1.20;0.20;;;7.00;64.30;;;;;;4992731;28;87723;-73
2023/01/16 09:46:26;;;;;;;1.58;0.20;;;7.00;63.90;;;;;;4984124;28;86335;-72
2023/01/16 09:48:57;;;;;;;1.27;0.10;;;7.20;63.20;;;;;;4990859;28;88625;-71
2023/01/16 09:51:33;;;;;;;1.52;0.20;;;7.40;62.80;;;;;;4995875;28;88444;-71
2023/01/16 09:59:43;;;;;;;2.22;0.20;;;7.70;61.80;;;;;;4980797;28;87786;-73
2023/01/16 10:02:30;;;;;;;0.88;0.30;;;7.80;60.10;;;;;;4987257;28;87758;-74
2023/01/16 10:04:56;;;;;;;2.85;0.20;;;7.90;59.80;;;;;;4995124;28;87417;-74
2023/01/16 10:07:40;;;;;;;0.80;0.10;;;8.10;58.80;;;;;;4981031;28;87360;-72
2023/01/16 10:10:43;;;;;;;1.83;0.20;;;7.90;58.30;;;;;;4971031;28;89371;-72
2023/01/16 10:13:28;;;;;;;0.70;0.10;;;8.10;60.10;;;;;;4975482;28;87903;-72
2023/01/16 10:16:19;;;;;;;2.00;0.30;;;8.10;59.50;;;;;;4977849;28;87139;-72
2023/01/16 10:18:57;;;;;;;1.77;0.20;;;8.00;59.40;;;;;;4982290;28;87546;-72
2023/01/16 10:21:44;;;;;;;1.95;0.20;;;8.00;59.00;;;;;;4985837;28;89580;-74
2023/01/16 10:24:34;;;;;;;2.15;0.20;;;8.10;58.20;;;;;;4992669;28;88293;-72
2023/01/16 10:27:04;;;;;;;1.50;0.20;;;8.10;58.40;;;;;;4977882;28;87775;-72
2023/01/16 10:29:38;;;;;;;1.58;0.30;;;8.00;57.80;;;;;;4977747;28;87280;-72
2023/01/16 10:32:29;;;;;;;2.78;0.20;;;8.00;59.00;;;;;;4981188;28;88249;-71
2023/01/16 10:35:10;;;;;;;5.63;0.40;;;7.70;60.00;;;;;;4981235;28;92518;-72
2023/01/16 10:37:38;;;;;;;5.63;0.30;;;7.50;61.10;;;;;;4986015;28;87106;-73
2023/01/16 10:40:21;;;;;;;3.53;0.20;;;7.30;62.60;;;;;;4982323;28;86611;-73
2023/01/16 10:51:07;;;;;;;2.17;0.13;;;6.70;67.40;;;;;;4973517;28;86995;-73
2023/01/16 10:53:34;;;;;;;1.67;0.20;;;6.70;67.20;;;;;;4973049;28;87657;-71
2023/01/16 10:56:01;;;;;;;2.10;0.30;;;6.70;68.30;;;;;;4979645;28;87303;-71
2023/01/16 10:58:28;;;;;;;2.33;0.30;;;6.60;68.50;;;;;;4965640;28;88998;-73
2023/01/16 11:01:04;;;;;;;2.60;0.30;;;6.60;68.60;;;;;;4979557;28;88548;-71
2023/01/16 11:03:40;;;;;;;3.00;0.20;;;6.50;68.70;;;;;;4970774;28;88570;-73
2023/01/16 11:06:09;;;;;;;2.17;0.60;;;6.30;69.60;;;;;;4977900;28;86416;-71
2023/01/16 11:08:35;;;;;;;2.58;0.30;;;6.20;70.20;;;;;;4980001;28;88520;-71
2023/01/16 11:11:01;;;;;;;3.78;0.28;;;6.10;70.60;;;;;;4973394;28;87521;-71
2023/01/16 11:18:58;;;;;;;1.45;0.28;;;5.80;72.50;;;;;;4975315;28;88700;-73
2023/01/16 11:21:29;;;;;;;3.92;0.30;;;5.70;73.90;;;;;;4965879;28;90159;-71
2023/01/16 11:24:18;;;;;;;2.13;0.40;;;5.60;72.80;;;;;;4964726;28;88192;-74
2023/01/16 11:26:49;;;;;;;4.82;0.80;;;5.50;75.00;;;;;;4968687;28;90194;-72
2023/01/16 11:29:23;;;;;;;4.47;0.45;;;5.50;74.20;;;;;;4969898;28;87740;-71
2023/01/16 11:31:56;;;;;;;1.48;0.30;;;5.50;74.20;;;;;;4967128;28;87258;-74
2023/01/16 11:34:26;;;;;;;1.83;0.25;;;5.50;73.30;;;;;;4966486;28;88999;-73
2023/01/16 11:36:54;;;;;;;2.40;0.55;;;5.60;73.30;;;;;;4973466;28;87881;-73
2023/01/16 11:39:24;;;;;;;3.10;0.40;;;5.60;72.70;;;;;;4971197;28;88176;-73
2023/01/16 11:41:53;;;;;;;3.40;0.20;;;5.70;71.50;;;;;;4966057;28;87659;-71
2023/01/16 11:47:12;;;;;;;1.13;0.20;;;5.60;71.40;;;;;;4967872;28;88912;-73
2023/01/16 11:49:39;;;;;;;;;;;5.60;71.60;;;;;;4966066;28;88066;-73
2023/01/16 11:52:05;;;;;;;2.53;0.75;;;5.50;72.00;;;;;;4966611;28;87549;-72
2023/01/16 11:54:33;;;;;;;2.92;0.30;;;5.50;73.20;;;;;;4959975;28;89300;-72
2023/01/16 11:57:20;;;;;;;2.13;0.20;;;5.60;71.80;;;;;;4961657;28;88551;-73
2023/01/16 11:59:54;;;;;;;6.28;0.13;;;5.60;72.10;;;;;;4960107;28;88150;-73
2023/01/16 12:02:27;;;;;;;0.98;0.20;;;5.70;71.70;;;;;;4965179;28;87700;-73
2023/01/16 12:08:25;;;;;;;3.22;0.57;;;5.70;70.60;;;;;;4964687;28;87640;-73
2023/01/16 12:11:13;;;;;;;5.18;1.27;;;5.70;72.00;;;;;;4965641;28;88229;-72
2023/01/16 12:16:29;;;;;;;2.58;0.50;;;5.60;73.00;;;;;;4967153;28;87446;-73
2023/01/16 12:19:22;;;;;;;2.63;0.35;;;5.70;74.70;;;;;;4971433;28;89252;-73
2023/01/16 12:22:11;;;;;;;5.07;0.40;;;5.80;72.50;;;;;;4965443;28;87508;-73
2023/01/16 12:24:47;;;;;;;5.57;0.75;;;5.90;72.10;;;;;;4967073;28;87070;-73
2023/01/16 12:27:20;;;;;;;2.65;0.40;;;5.90;72.30;;;;;;4966576;28;88574;-73
2023/01/16 12:30:08;;;;;;;4.63;0.30;;;5.80;72.30;;;;;;4975859;28;87908;-73
2023/01/16 12:32:59;;;;;;;1.55;0.20;;;5.80;72.00;;;;;;4975599;28;88631;-73
2023/01/16 12:35:56;;;;;;;2.45;0.40;;;5.70;76.70;;;;;;4969217;28;87564;-73
2023/01/16 12:38:31;;;;;;;2.78;0.30;;;5.80;73.10;;;;;;4971493;28;87681;-73
2023/01/16 12:44:35;;;;;;;;;;;5.80;72.80;;;;;;4979269;28;88222;-72
2023/01/16 12:47:16;;;;;;;4.22;0.28;;;5.80;71.30;;;;;;4959776;28;87789;-71
2023/01/16 12:49:56;;;;;;;2.92;0.30;;;5.70;72.70;;;;;;4973707;28;92931;-73
2023/01/16 12:52:50;;;;;;;5.85;0.60;;;5.80;73.40;;;;;;4972643;28;89893;-73
2023/01/16 12:55:54;;;;;;;1.10;0.30;;;5.90;73.20;;;;;;4976801;28;87607;-73
2023/01/16 12:58:24;;;;;;;2.05;0.32;;;5.80;72.60;;;;;;4982251;28;88068;-73
2023/01/16 13:01:15;;;;;;;2.65;0.20;;;5.80;72.60;;;;;;4987354;28;90893;-73
2023/01/16 13:03:55;;;;;;;1.10;0.17;;;5.90;71.40;;;;;;4970798;28;88139;-73
2023/01/16 13:06:39;;;;;;;4.38;0.30;;;6.00;71.70;;;;;;4991207;28;87375;-73
2023/01/16 13:09:20;;;;;;;3.17;0.22;;;6.10;71.80;;;;;;4985211;28;87407;-73
2023/01/16 13:14:48;;;;;;;2.83;0.55;;;6.20;72.30;;;;;;4977347;28;88166;-73
2023/01/16 13:17:21;;;;;;;4.32;0.43;;;6.20;71.40;;;;;;4978294;28;87539;-73
2023/01/16 13:19:49;;;;;;;1.80;0.30;;;6.30;71.10;;;;;;4968032;28;86730;-73
2023/01/16 13:22:27;;;;;;;2.22;0.50;;;6.40;71.60;;;;;;4976930;28;88217;-73
2023/01/16 13:25:06;;;;;;;3.58;0.85;;;6.40;71.00;;;;;;4972941;28;87277;-73
2023/01/16 13:27:47;;;;;;;3.60;0.55;;;6.50;70.40;;;;;;4981173;28;88780;-73
2023/01/16 13:30:18;;;;;;;3.55;0.70;;;6.50;70.50;;;;;;4977322;28;87353;-74
2023/01/16 13:32:44;;;;;;;3.05;0.68;;;6.50;70.40;;;;;;4977487;28;91903;-73
2023/01/16 13:35:22;;;;;;;2.63;0.63;;;6.50;71.30;;;;;;4971571;28;88286;-73
2023/01/16 13:38:14;;;;;;;2.92;0.70;;;6.50;72.00;;;;;;4978341;28;87543;-73
2023/01/16 13:41:08;;;;;;;3.58;0.40;;;6.60;72.00;;;;;;4974263;28;87342;-73
2023/01/16 13:46:25;;;;;;;1.95;0.35;;;6.80;70.70;;;;;;4974528;28;87111;-73
2023/01/16 13:48:59;;;;;;;3.50;0.40;;;6.90;69.70;;;;;;4975911;28;87523;-73
2023/01/16 13:51:25;;;;;;;3.10;0.50;;;6.90;68.50;;;;;;4973411;28;87998;-73
2023/01/16 13:53:59;;;;;;;3.58;0.45;;;6.90;68.10;;;;;;4975253;28;88554;-73
2023/01/16 13:56:27;;;;;;;2.28;0.43;;;6.90;67.80;;;;;;4978197;28;89033;-73
2023/01/16 13:59:02;;;;;;;4.40;1.13;;;6.90;67.80;;;;;;4975159;28;88602;-73
2023/01/16 14:01:43;;;;;;;3.15;0.20;;;6.90;68.60;;;;;;4970038;28;88136;-73
2023/01/16 14:04:15;;;;;;;4.63;0.20;;;6.80;65.40;;;;;;4969289;28;88186;-73
2023/01/16 14:10:24;;;;;;;2.92;0.20;;;6.70;65.80;;;;;;4976944;28;87166;-73
2023/01/16 14:13:12;;;;;;;3.05;0.20;;;6.70;66.50;;;;;;4949372;28;88170;-73
2023/01/16 14:18:49;;;;;;;2.33;0.20;;;6.90;66.10;;;;;;4980730;28;87564;-73
2023/01/16 14:21:20;;;;;;;2.15;0.20;;;7.00;65.20;;;;;;4981224;28;88354;-74
2023/01/16 14:24:01;;;;;;;1.20;0.20;;;7.00;64.60;;;;;;4973449;28;87664;-73
2023/01/16 14:26:36;;;;;;;2.72;0.55;;;7.00;63.70;;;;;;4981667;28;90460;-73